createdAt,value
2019-06-27T00:00:24.526Z,25.48
2019-06-27T00:02:51.366Z,25.48
2019-06-27T00:05:18.144Z,25.49
2019-06-27T00:07:44.939Z,25.49
2019-06-27T00:10:11.823Z,25.49
2019-06-27T00:12:38.608Z,25.48
2019-06-27T00:15:05.408Z,25.48
2019-06-27T00:17:32.185Z,25.49
2019-06-27T00:19:58.997Z,25.49
2019-06-27T00:22:25.774Z,25.48
2019-06-27T00:24:52.596Z,25.48
2019-06-27T00:27:19.480Z,25.49
2019-06-27T00:29:46.282Z,25.48
2019-06-27T00:32:13.059Z,25.49
2019-06-27T00:34:39.886Z,25.49
2019-06-27T00:37:06.663Z,25.48
2019-06-27T00:39:33.438Z,25.49
2019-06-27T00:42:00.218Z,25.49
2019-06-27T00:44:26.980Z,25.48
2019-06-27T00:46:53.789Z,25.48
2019-06-27T00:49:20.552Z,25.48
2019-06-27T00:51:47.354Z,25.48
2019-06-27T00:54:14.130Z,25.48
2019-06-27T00:56:40.910Z,25.49
2019-06-27T00:59:07.692Z,25.49
2019-06-27T01:01:34.502Z,25.48
2019-06-27T01:04:01.360Z,25.48
2019-06-27T01:06:28.136Z,25.49
2019-06-27T01:08:54.958Z,25.49
2019-06-27T01:11:21.794Z,25.47
2019-06-27T01:13:48.618Z,25.47
2019-06-27T01:16:15.390Z,25.47
2019-06-27T01:18:42.436Z,25.48
2019-06-27T01:21:09.214Z,25.48
2019-06-27T01:23:36.000Z,25.49
2019-06-27T01:26:02.813Z,25.48
2019-06-27T01:28:29.582Z,25.48
2019-06-27T01:30:56.412Z,25.48
2019-06-27T01:33:23.191Z,25.47
2019-06-27T01:35:49.980Z,25.48
2019-06-27T01:38:16.765Z,25.48
2019-06-27T01:40:43.572Z,25.49
2019-06-27T01:43:10.354Z,25.48
2019-06-27T01:45:38.815Z,25.48
2019-06-27T01:48:05.594Z,25.47
2019-06-27T01:50:32.366Z,25.47
2019-06-27T01:52:59.175Z,25.48
2019-06-27T01:55:25.951Z,25.47
2019-06-27T01:57:52.797Z,25.48
2019-06-27T02:00:19.631Z,25.47
2019-06-27T02:02:46.466Z,25.47
2019-06-27T02:05:13.246Z,25.47
2019-06-27T02:07:40.020Z,25.47
2019-06-27T02:10:06.857Z,25.47
2019-06-27T02:12:33.648Z,25.48
2019-06-27T02:15:00.440Z,25.47
2019-06-27T02:17:27.223Z,25.48
2019-06-27T02:19:54.262Z,25.47
2019-06-27T02:22:21.092Z,25.48
2019-06-27T02:24:47.879Z,25.47
2019-06-27T02:27:14.645Z,25.47
2019-06-27T02:29:41.435Z,25.47
2019-06-27T02:32:08.214Z,25.48
2019-06-27T02:34:34.994Z,25.47
2019-06-27T02:37:01.761Z,25.48
2019-06-27T02:39:28.569Z,25.47
2019-06-27T02:41:55.354Z,25.47
2019-06-27T02:44:22.142Z,25.48
2019-06-27T02:46:49.038Z,25.46
2019-06-27T02:49:15.829Z,25.46
2019-06-27T02:51:42.620Z,25.47
2019-06-27T02:54:09.474Z,25.47
2019-06-27T02:56:36.274Z,25.47
2019-06-27T02:59:03.088Z,25.48
2019-06-27T03:01:29.916Z,25.47
2019-06-27T03:03:56.700Z,25.47
2019-06-27T03:06:23.480Z,25.47
2019-06-27T03:08:50.273Z,25.47
2019-06-27T03:11:17.069Z,25.48
2019-06-27T03:13:43.838Z,25.47
2019-06-27T03:16:10.726Z,25.47
2019-06-27T03:18:37.511Z,25.47
2019-06-27T03:21:04.294Z,25.47
2019-06-27T03:23:31.092Z,25.46
2019-06-27T03:25:57.931Z,25.46
2019-06-27T03:28:24.726Z,25.47
2019-06-27T03:30:51.501Z,25.47
2019-06-27T03:33:18.279Z,25.47
2019-06-27T03:35:45.051Z,25.47
2019-06-27T03:38:12.190Z,25.47
2019-06-27T03:40:38.971Z,25.47
2019-06-27T03:43:05.758Z,25.47
2019-06-27T03:45:32.531Z,25.46
2019-06-27T03:47:59.326Z,25.47
2019-06-27T03:50:26.105Z,25.46
2019-06-27T03:52:52.908Z,25.47
2019-06-27T03:55:19.668Z,25.47
2019-06-27T03:57:46.449Z,25.46
2019-06-27T04:00:13.239Z,25.46
2019-06-27T04:02:40.016Z,25.48
2019-06-27T04:05:07.060Z,25.46
2019-06-27T04:07:33.931Z,25.48
2019-06-27T04:10:00.688Z,25.46
2019-06-27T04:12:27.470Z,25.47
2019-06-27T04:14:54.250Z,25.47
2019-06-27T04:17:21.277Z,25.47
2019-06-27T04:19:48.069Z,25.46
2019-06-27T04:22:17.453Z,25.47
2019-06-27T04:24:43.655Z,25.47
2019-06-27T04:27:10.452Z,25.46
2019-06-27T04:29:37.221Z,25.47
2019-06-27T04:32:04.039Z,25.47
2019-06-27T04:34:30.824Z,25.47
2019-06-27T04:36:57.603Z,25.46
2019-06-27T04:39:24.386Z,25.46
2019-06-27T04:41:51.175Z,25.46
2019-06-27T04:44:17.938Z,25.48
2019-06-27T04:46:45.047Z,25.47
2019-06-27T04:49:13.735Z,25.46
2019-06-27T04:51:40.334Z,25.47
2019-06-27T04:54:07.156Z,25.47
2019-06-27T04:56:33.920Z,25.47
2019-06-27T04:59:00.688Z,25.46
2019-06-27T05:01:27.746Z,25.46
2019-06-27T05:03:54.586Z,25.47
2019-06-27T05:06:21.630Z,25.46
2019-06-27T05:08:48.446Z,25.47
2019-06-27T05:11:15.204Z,25.47
2019-06-27T05:13:42.031Z,25.46
2019-06-27T05:16:08.792Z,25.47
2019-06-27T05:18:35.606Z,25.46
2019-06-27T05:21:02.379Z,25.46
2019-06-27T05:23:29.199Z,25.46
2019-06-27T05:25:56.008Z,25.48
2019-06-27T05:28:23.113Z,25.48
2019-06-27T05:30:51.578Z,25.48
2019-06-27T05:33:18.386Z,25.48
2019-06-27T05:35:45.210Z,25.47
2019-06-27T05:38:11.973Z,25.48
2019-06-27T05:40:38.763Z,25.48
2019-06-27T05:43:05.714Z,25.48
2019-06-27T05:45:32.560Z,25.47
2019-06-27T05:47:59.405Z,25.47
2019-06-27T05:50:26.288Z,24.87
2019-06-27T05:52:53.079Z,25.48
2019-06-27T05:55:19.890Z,25.48
2019-06-27T05:57:46.703Z,25.47
2019-06-27T06:00:27.380Z,25.46
2019-06-27T06:02:42.018Z,25.46
2019-06-27T06:05:08.799Z,25.47
2019-06-27T06:07:35.716Z,25.48
2019-06-27T06:10:02.515Z,25.48
2019-06-27T06:12:29.320Z,25.48
2019-06-27T06:14:56.121Z,25.47
2019-06-27T06:17:22.950Z,25.49
2019-06-27T06:19:49.799Z,25.48
2019-06-27T06:22:16.566Z,25.49
2019-06-27T06:24:43.354Z,25.48
2019-06-27T06:27:10.143Z,25.48
2019-06-27T06:29:36.918Z,25.48
2019-06-27T06:32:03.681Z,25.49
2019-06-27T06:34:30.509Z,25.49
2019-06-27T06:36:57.333Z,25.49
2019-06-27T06:39:24.174Z,25.49
2019-06-27T06:41:50.950Z,25.49
2019-06-27T06:44:17.731Z,25.50
2019-06-27T06:46:44.504Z,25.51
2019-06-27T06:49:11.291Z,25.50
2019-06-27T06:51:38.091Z,25.49
2019-06-27T06:54:04.870Z,25.49
2019-06-27T06:56:31.646Z,25.50
2019-06-27T06:58:58.419Z,25.49
2019-06-27T07:01:25.229Z,25.49
2019-06-27T07:03:51.990Z,25.50
2019-06-27T07:06:18.773Z,25.49
2019-06-27T07:08:45.558Z,25.50
2019-06-27T07:11:12.371Z,25.51
2019-06-27T07:13:39.136Z,25.50
2019-06-27T07:16:05.927Z,25.50
2019-06-27T07:18:32.728Z,25.50
2019-06-27T07:20:59.496Z,25.50
2019-06-27T07:23:26.278Z,25.50
2019-06-27T07:25:53.058Z,25.50
2019-06-27T07:28:19.881Z,25.50
2019-06-27T07:30:46.641Z,25.51
2019-06-27T07:33:13.466Z,25.50
2019-06-27T07:35:40.244Z,25.51
2019-06-27T07:38:07.050Z,25.51
2019-06-27T07:40:33.816Z,25.51
2019-06-27T07:43:00.629Z,25.51
2019-06-27T07:45:27.459Z,25.51
2019-06-27T07:47:54.299Z,25.51
2019-06-27T07:50:21.160Z,25.51
2019-06-27T07:52:47.932Z,25.51
2019-06-27T07:55:14.723Z,25.52
2019-06-27T07:57:41.515Z,25.52
2019-06-27T08:00:08.300Z,25.51
2019-06-27T08:02:35.121Z,25.53
2019-06-27T08:05:01.885Z,25.51
2019-06-27T08:07:28.659Z,24.90
2019-06-27T08:09:55.424Z,25.52
2019-06-27T08:12:22.277Z,25.52
2019-06-27T08:14:49.074Z,25.52
2019-06-27T08:17:15.927Z,25.52
2019-06-27T08:19:42.715Z,25.53
2019-06-27T08:22:09.524Z,25.52
2019-06-27T08:24:36.313Z,25.53
2019-06-27T08:27:03.139Z,25.53
2019-06-27T08:29:29.905Z,25.52
2019-06-27T08:31:56.682Z,24.94
2019-06-27T08:34:23.466Z,25.53
2019-06-27T08:36:50.261Z,25.53
2019-06-27T08:39:17.125Z,25.53
2019-06-27T08:41:43.903Z,25.53
2019-06-27T08:44:10.680Z,25.54
2019-06-27T08:46:37.448Z,25.53
2019-06-27T08:49:04.262Z,25.53
2019-06-27T08:51:31.045Z,25.53
2019-06-27T08:53:57.881Z,25.54
2019-06-27T08:56:24.982Z,25.53
2019-06-27T08:58:51.794Z,25.54
2019-06-27T09:01:18.871Z,25.53
2019-06-27T09:03:45.770Z,25.54
2019-06-27T09:06:12.599Z,25.54
2019-06-27T09:08:39.380Z,25.54
2019-06-27T09:11:06.248Z,25.54
2019-06-27T09:13:33.032Z,25.54
2019-06-27T09:15:59.901Z,25.54
2019-06-27T09:18:26.659Z,25.55
2019-06-27T09:20:53.461Z,25.54
2019-06-27T09:23:20.248Z,25.54
2019-06-27T09:25:47.082Z,25.55
2019-06-27T09:28:13.890Z,25.55
2019-06-27T09:30:40.680Z,25.54
2019-06-27T09:33:07.491Z,25.56
2019-06-27T09:35:34.290Z,25.55
2019-06-27T09:38:01.159Z,25.55
2019-06-27T09:40:28.021Z,25.55
2019-06-27T09:42:54.811Z,25.55
2019-06-27T09:45:21.593Z,25.02
2019-06-27T09:47:48.399Z,25.55
2019-06-27T09:50:15.218Z,25.54
2019-06-27T09:52:41.980Z,25.55
2019-06-27T09:55:08.766Z,25.55
2019-06-27T09:57:35.634Z,25.55
2019-06-27T10:00:02.463Z,25.55
2019-06-27T10:02:41.064Z,25.55
2019-06-27T10:04:57.858Z,25.55
2019-06-27T10:07:24.659Z,25.55
2019-06-27T10:09:51.434Z,25.54
2019-06-27T10:12:18.226Z,25.56
2019-06-27T10:14:45.029Z,25.55
2019-06-27T10:17:11.794Z,25.55
2019-06-27T10:19:38.595Z,25.55
2019-06-27T10:22:05.369Z,25.56
2019-06-27T10:24:32.253Z,25.56
2019-06-27T10:26:59.020Z,25.56
2019-06-27T10:29:25.833Z,25.56
2019-06-27T10:31:52.741Z,25.57
2019-06-27T10:34:19.550Z,25.56
2019-06-27T10:36:46.360Z,25.56
2019-06-27T10:39:13.132Z,25.57
2019-06-27T10:41:39.939Z,25.56
2019-06-27T10:44:06.756Z,25.57
2019-06-27T10:46:33.534Z,25.56
2019-06-27T10:49:00.352Z,25.56
2019-06-27T10:51:27.425Z,25.57
2019-06-27T10:53:54.238Z,25.57
2019-06-27T10:56:21.085Z,25.56
2019-06-27T10:58:47.856Z,25.57
2019-06-27T11:01:14.675Z,25.57
2019-06-27T11:03:41.455Z,25.58
2019-06-27T11:06:08.292Z,25.57
2019-06-27T11:08:35.144Z,25.57
2019-06-27T11:11:01.967Z,25.58
2019-06-27T11:13:28.802Z,25.58
2019-06-27T11:15:55.628Z,25.58
2019-06-27T11:18:22.438Z,25.57
2019-06-27T11:20:49.219Z,25.58
2019-06-27T11:23:16.027Z,25.57
2019-06-27T11:25:42.849Z,25.58
2019-06-27T11:28:10.342Z,25.58
2019-06-27T11:30:37.234Z,25.58
2019-06-27T11:33:04.058Z,25.58
2019-06-27T11:35:30.860Z,25.58
2019-06-27T11:37:57.694Z,25.58
2019-06-27T11:40:24.483Z,25.59
2019-06-27T11:42:51.329Z,25.58
2019-06-27T11:45:18.108Z,25.59
2019-06-27T11:47:44.881Z,25.58
2019-06-27T11:50:11.671Z,25.59
2019-06-27T11:52:38.476Z,25.61
2019-06-27T11:55:05.507Z,25.60
2019-06-27T11:57:32.310Z,25.59
2019-06-27T11:59:59.096Z,25.59
2019-06-27T12:02:25.871Z,25.61
2019-06-27T12:04:52.649Z,25.60
2019-06-27T12:07:19.422Z,25.61
2019-06-27T12:09:46.188Z,25.59
2019-06-27T12:12:12.975Z,25.61
2019-06-27T12:14:39.754Z,25.61
2019-06-27T12:17:06.581Z,25.61
2019-06-27T12:19:33.348Z,25.59
2019-06-27T12:22:00.121Z,25.62
2019-06-27T12:24:26.951Z,25.61
2019-06-27T12:26:53.736Z,25.61
2019-06-27T12:29:20.856Z,25.61
2019-06-27T12:31:51.339Z,25.61
2019-06-27T12:34:16.241Z,25.61
2019-06-27T12:36:43.069Z,25.62
2019-06-27T12:39:09.844Z,25.62
2019-06-27T12:41:36.634Z,25.62
2019-06-27T12:44:03.751Z,25.62
2019-06-27T12:46:30.561Z,25.62
2019-06-27T12:48:57.380Z,25.63
2019-06-27T12:51:24.196Z,25.63
2019-06-27T12:53:50.973Z,25.62
2019-06-27T12:56:17.751Z,25.62
2019-06-27T12:58:44.522Z,25.62
2019-06-27T13:01:11.354Z,25.63
2019-06-27T13:03:38.143Z,25.63
2019-06-27T13:06:04.905Z,25.62
2019-06-27T13:08:31.694Z,25.63
2019-06-27T13:10:58.491Z,25.64
2019-06-27T13:13:25.277Z,25.64
2019-06-27T13:15:52.054Z,25.64
2019-06-27T13:18:18.846Z,25.63
2019-06-27T13:20:57.152Z,25.64
2019-06-27T13:23:14.295Z,25.63
2019-06-27T13:25:41.068Z,25.63
2019-06-27T13:28:07.907Z,25.63
2019-06-27T13:30:34.699Z,25.64
2019-06-27T13:33:01.471Z,25.63
2019-06-27T13:35:28.261Z,25.64
2019-06-27T13:37:55.025Z,25.64
2019-06-27T13:40:21.868Z,25.65
2019-06-27T13:42:48.638Z,25.65
2019-06-27T13:45:15.441Z,25.65
2019-06-27T13:47:42.200Z,25.65
2019-06-27T13:50:08.992Z,25.65
2019-06-27T13:52:35.749Z,25.65
2019-06-27T13:55:02.552Z,25.65
2019-06-27T13:57:29.366Z,25.65
2019-06-27T13:59:56.160Z,25.65
2019-06-27T14:02:22.958Z,25.66
2019-06-27T14:04:57.113Z,25.65
2019-06-27T14:07:18.286Z,25.66
2019-06-27T14:09:53.724Z,25.66
2019-06-27T14:12:13.614Z,25.66
2019-06-27T14:14:40.400Z,25.66
2019-06-27T14:17:07.225Z,25.66
2019-06-27T14:19:34.008Z,25.66
2019-06-27T14:22:00.782Z,25.66
2019-06-27T14:24:27.641Z,25.67
2019-06-27T14:26:54.419Z,25.66
2019-06-27T14:29:21.198Z,25.67
2019-06-27T14:31:47.995Z,25.66
2019-06-27T14:34:14.774Z,25.66
2019-06-27T14:36:41.545Z,25.68
2019-06-27T14:39:08.339Z,25.67
2019-06-27T14:41:35.104Z,25.67
2019-06-27T14:44:01.902Z,25.67
2019-06-27T14:46:28.668Z,25.67
2019-06-27T14:48:56.881Z,25.68
2019-06-27T14:51:23.827Z,25.69
2019-06-27T14:53:50.634Z,25.67
2019-06-27T14:56:17.460Z,25.68
2019-06-27T14:58:44.300Z,25.68
2019-06-27T15:01:11.080Z,25.69
2019-06-27T15:03:37.925Z,25.68
2019-06-27T15:06:04.726Z,25.69
2019-06-27T15:08:31.506Z,25.68
2019-06-27T15:10:58.337Z,25.68
2019-06-27T15:13:25.109Z,25.68
2019-06-27T15:15:51.910Z,25.69
2019-06-27T15:18:19.066Z,25.70
2019-06-27T15:20:45.916Z,25.69
2019-06-27T15:23:12.736Z,25.69
2019-06-27T15:25:39.514Z,25.70
2019-06-27T15:28:06.277Z,25.69
2019-06-27T15:30:33.061Z,25.70
2019-06-27T15:32:59.868Z,25.69
2019-06-27T15:35:26.634Z,25.70
2019-06-27T15:37:53.703Z,25.69
2019-06-27T15:40:20.515Z,25.70
2019-06-27T15:42:47.333Z,25.70
2019-06-27T15:45:14.097Z,25.70
2019-06-27T15:47:40.886Z,25.70
2019-06-27T15:50:07.678Z,25.70
2019-06-27T15:52:34.453Z,25.71
2019-06-27T15:55:01.249Z,25.71
2019-06-27T15:57:28.030Z,25.70
2019-06-27T15:59:54.793Z,25.71
2019-06-27T16:02:21.561Z,25.72
2019-06-27T16:04:48.354Z,25.70
2019-06-27T16:07:15.212Z,25.71
2019-06-27T16:09:41.986Z,25.72
2019-06-27T16:12:08.807Z,25.72
2019-06-27T16:14:35.585Z,25.71
2019-06-27T16:17:02.391Z,25.72
2019-06-27T16:19:29.166Z,25.72
2019-06-27T16:21:56.011Z,25.72
2019-06-27T16:24:22.780Z,25.71
2019-06-27T16:26:49.635Z,25.72
2019-06-27T16:29:16.451Z,25.72
2019-06-27T16:31:43.288Z,25.72
2019-06-27T16:34:10.147Z,25.72
2019-06-27T16:36:37.040Z,25.73
2019-06-27T16:39:04.999Z,25.73
2019-06-27T16:41:31.836Z,25.73
2019-06-27T16:43:58.686Z,25.73
2019-06-27T16:46:25.491Z,25.72
2019-06-27T16:48:52.257Z,25.73
2019-06-27T16:51:20.582Z,25.73
2019-06-27T16:53:47.596Z,25.72
2019-06-27T16:56:14.375Z,25.73
2019-06-27T16:58:41.162Z,25.72
2019-06-27T17:01:07.953Z,25.73
2019-06-27T17:03:34.742Z,25.74
2019-06-27T17:06:01.587Z,25.73
2019-06-27T17:08:28.404Z,25.73
2019-06-27T17:10:58.550Z,25.74
2019-06-27T17:13:23.692Z,25.73
2019-06-27T17:15:50.475Z,25.74
2019-06-27T17:18:17.268Z,25.74
2019-06-27T17:20:44.184Z,25.74
2019-06-27T17:23:11.272Z,25.74
2019-06-27T17:25:38.072Z,25.74
2019-06-27T17:28:04.856Z,25.75
2019-06-27T17:30:31.648Z,25.74
2019-06-27T17:32:58.418Z,25.75
2019-06-27T17:35:25.252Z,25.74
2019-06-27T17:37:52.016Z,25.75
2019-06-27T17:40:18.827Z,25.75
2019-06-27T17:42:45.659Z,25.75
2019-06-27T17:45:12.538Z,25.75
2019-06-27T17:47:39.803Z,25.74
2019-06-27T17:50:06.606Z,25.75
2019-06-27T17:52:33.402Z,25.75
2019-06-27T17:55:00.170Z,25.75
2019-06-27T17:57:26.985Z,25.75
2019-06-27T17:59:53.754Z,25.75
2019-06-27T18:02:20.556Z,25.75
2019-06-27T18:04:47.335Z,25.75
2019-06-27T18:07:15.214Z,25.75
2019-06-27T18:09:42.088Z,25.75
2019-06-27T18:12:08.900Z,25.75
2019-06-27T18:14:35.679Z,25.75
2019-06-27T18:17:02.486Z,25.75
2019-06-27T18:19:29.252Z,25.75
2019-06-27T18:21:56.044Z,25.75
2019-06-27T18:24:22.810Z,25.75
2019-06-27T18:26:49.642Z,25.76
2019-06-27T18:29:16.468Z,25.76
2019-06-27T18:31:43.252Z,25.76
2019-06-27T18:34:10.078Z,25.75
2019-06-27T18:36:37.101Z,25.75
2019-06-27T18:39:04.194Z,25.74
2019-06-27T18:41:30.978Z,25.75
2019-06-27T18:43:57.795Z,25.75
2019-06-27T18:46:24.610Z,25.76
2019-06-27T18:48:52.140Z,25.75
2019-06-27T18:51:19.034Z,25.77
2019-06-27T18:53:45.813Z,25.76
2019-06-27T18:56:12.604Z,25.75
2019-06-27T18:58:39.368Z,25.76
2019-06-27T19:01:06.207Z,25.77
2019-06-27T19:03:32.982Z,25.76
2019-06-27T19:05:59.799Z,25.76
2019-06-27T19:08:26.560Z,25.76
2019-06-27T19:10:53.401Z,25.76
2019-06-27T19:13:20.172Z,25.76
2019-06-27T19:15:46.938Z,25.77
2019-06-27T19:18:31.793Z,25.76
2019-06-27T19:21:00.240Z,25.76
2019-06-27T19:23:31.464Z,25.77
2019-06-27T19:25:58.808Z,25.77
2019-06-27T19:28:25.585Z,25.76
2019-06-27T19:30:52.358Z,25.77
2019-06-27T19:33:19.147Z,25.76
2019-06-27T19:35:45.953Z,25.76
2019-06-27T19:38:12.750Z,25.77
2019-06-27T19:40:39.548Z,25.77
2019-06-27T19:43:06.358Z,25.77
2019-06-27T19:45:33.517Z,25.76
2019-06-27T19:48:00.299Z,25.77
2019-06-27T19:50:27.097Z,25.77
2019-06-27T19:52:53.892Z,25.77
2019-06-27T19:55:20.705Z,25.77
2019-06-27T19:57:47.487Z,25.77
2019-06-27T20:00:14.262Z,25.78
2019-06-27T20:02:41.310Z,25.77
2019-06-27T20:05:08.082Z,25.77
2019-06-27T20:07:34.898Z,25.77
2019-06-27T20:10:01.672Z,25.78
2019-06-27T20:12:28.464Z,25.77
2019-06-27T20:14:55.239Z,25.78
2019-06-27T20:17:22.046Z,25.78
2019-06-27T20:19:48.826Z,25.78
2019-06-27T20:22:15.622Z,25.77
2019-06-27T20:24:42.397Z,25.78
2019-06-27T20:27:09.178Z,25.78
2019-06-27T20:29:35.957Z,25.79
2019-06-27T20:32:02.784Z,25.77
2019-06-27T20:34:29.572Z,25.78
2019-06-27T20:36:56.410Z,25.77
2019-06-27T20:39:23.206Z,25.78
2019-06-27T20:41:49.991Z,25.77
2019-06-27T20:44:16.764Z,25.78
2019-06-27T20:46:43.558Z,25.78
2019-06-27T20:49:10.344Z,25.77
2019-06-27T20:51:37.149Z,25.77
2019-06-27T20:54:03.947Z,25.77
2019-06-27T20:56:30.728Z,25.78
2019-06-27T20:58:57.506Z,25.77
2019-06-27T21:01:24.293Z,25.78
2019-06-27T21:03:51.068Z,25.78
2019-06-27T21:06:17.861Z,25.77
2019-06-27T21:08:51.217Z,25.78
2019-06-27T21:11:13.146Z,25.77
2019-06-27T21:13:39.936Z,25.77
2019-06-27T21:16:06.723Z,25.77
2019-06-27T21:18:33.484Z,25.77
2019-06-27T21:21:00.281Z,25.78
2019-06-27T21:23:27.071Z,25.78
2019-06-27T21:25:53.868Z,25.77
2019-06-27T21:28:20.701Z,25.77
2019-06-27T21:30:47.470Z,25.78
2019-06-27T21:33:14.256Z,25.77
2019-06-27T21:35:41.030Z,25.77
2019-06-27T21:38:07.820Z,25.78
2019-06-27T21:40:34.654Z,25.77
2019-06-27T21:43:01.481Z,25.78
2019-06-27T21:45:28.257Z,25.77
2019-06-27T21:47:55.091Z,25.77
2019-06-27T21:50:21.876Z,25.77
2019-06-27T21:52:48.653Z,25.76
2019-06-27T21:55:15.452Z,25.76
2019-06-27T21:57:42.231Z,25.77
2019-06-27T22:00:08.998Z,25.77
2019-06-27T22:02:35.775Z,25.77
2019-06-27T22:05:02.553Z,25.77
2019-06-27T22:07:29.326Z,25.77
2019-06-27T22:09:56.118Z,25.77
2019-06-27T22:12:22.910Z,25.77
2019-06-27T22:14:49.702Z,25.77
2019-06-27T22:17:16.474Z,25.77
2019-06-27T22:19:43.260Z,25.77
2019-06-27T22:22:10.030Z,25.77
2019-06-27T22:24:36.792Z,25.76
2019-06-27T22:27:03.599Z,25.77
2019-06-27T22:29:30.438Z,25.77
2019-06-27T22:31:57.214Z,25.76
2019-06-27T22:34:23.994Z,25.77
2019-06-27T22:36:51.265Z,25.77
2019-06-27T22:39:40.493Z,25.77
2019-06-27T22:42:22.412Z,25.76
2019-06-27T22:45:07.494Z,25.76
2019-06-27T22:47:52.614Z,25.76
2019-06-27T22:50:37.297Z,25.76
2019-06-27T22:53:08.771Z,25.76
2019-06-27T22:55:35.614Z,25.76
2019-06-27T22:58:02.426Z,25.76
2019-06-27T23:00:29.265Z,25.76
2019-06-27T23:02:56.109Z,25.76
2019-06-27T23:05:23.010Z,25.77
2019-06-27T23:07:49.893Z,25.77
2019-06-27T23:10:16.676Z,25.76
2019-06-27T23:12:43.490Z,25.77
2019-06-27T23:15:10.266Z,25.76
2019-06-27T23:17:37.063Z,25.76
2019-06-27T23:20:03.912Z,25.77
2019-06-27T23:22:30.774Z,25.76
2019-06-27T23:24:57.549Z,25.76
2019-06-27T23:27:24.350Z,25.77
2019-06-27T23:29:51.414Z,25.76
2019-06-27T23:32:18.253Z,25.76
2019-06-27T23:34:45.054Z,25.77
2019-06-27T23:37:12.044Z,25.77
2019-06-27T23:39:38.824Z,25.77
2019-06-27T23:42:05.600Z,25.76
2019-06-27T23:44:32.383Z,25.76
2019-06-27T23:46:59.292Z,25.77
2019-06-27T23:49:26.237Z,25.76
2019-06-27T23:51:53.035Z,25.77
2019-06-27T23:54:20.114Z,25.77
2019-06-27T23:56:47.337Z,25.77
2019-06-27T23:59:14.171Z,25.76
